createdAt,value
2022-08-03T00:01:49.661Z,100.00
2022-08-03T00:04:16.542Z,100.00
2022-08-03T00:06:43.393Z,100.00
2022-08-03T00:09:10.729Z,100.00
2022-08-03T00:11:38.411Z,100.00
2022-08-03T00:14:09.102Z,100.00
2022-08-03T00:16:36.060Z,100.00
2022-08-03T00:19:03.433Z,100.00
2022-08-03T00:21:30.348Z,100.00
2022-08-03T00:23:57.234Z,100.00
2022-08-03T00:26:23.984Z,100.00
2022-08-03T00:28:51.106Z,100.00
2022-08-03T00:31:22.353Z,100.00
2022-08-03T00:34:04.618Z,100.00
2022-08-03T00:36:32.955Z,100.00
2022-08-03T00:38:59.743Z,100.00
2022-08-03T00:41:26.515Z,100.00
2022-08-03T00:43:53.262Z,100.00
2022-08-03T00:46:22.440Z,100.00
2022-08-03T00:48:50.399Z,100.00
2022-08-03T00:51:18.239Z,100.00
2022-08-03T00:53:45.881Z,100.00
2022-08-03T00:56:16.699Z,100.00
2022-08-03T00:58:47.579Z,100.00
2022-08-03T01:01:15.398Z,100.00
2022-08-03T01:03:42.330Z,100.00
2022-08-03T01:06:11.807Z,100.00
2022-08-03T01:08:47.542Z,100.00
2022-08-03T01:11:32.473Z,100.00
2022-08-03T01:14:40.063Z,100.00
2022-08-03T01:17:19.458Z,100.00
2022-08-03T01:20:07.092Z,100.00
2022-08-03T01:23:21.325Z,100.00
2022-08-03T01:26:07.134Z,100.00
2022-08-03T01:28:52.591Z,100.00
2022-08-03T01:31:26.208Z,100.00
2022-08-03T01:34:01.457Z,100.00
2022-08-03T01:36:36.664Z,100.00
2022-08-03T01:39:09.597Z,100.00
2022-08-03T01:41:42.403Z,100.00
2022-08-03T01:44:29.942Z,100.00
2022-08-03T01:47:02.987Z,100.00
2022-08-03T01:49:34.031Z,100.00
2022-08-03T01:52:05.020Z,100.00
2022-08-03T01:54:41.015Z,100.00
2022-08-03T01:57:09.738Z,100.00
2022-08-03T01:59:38.905Z,100.00
2022-08-03T02:02:29.892Z,100.00
2022-08-03T02:04:57.694Z,100.00
2022-08-03T02:07:26.896Z,100.00
2022-08-03T02:09:55.200Z,100.00
2022-08-03T02:12:25.011Z,100.00
2022-08-03T02:14:52.226Z,100.00
2022-08-03T02:17:39.385Z,100.00
2022-08-03T02:20:09.177Z,100.00
2022-08-03T02:22:39.278Z,100.00
2022-08-03T02:25:10.669Z,100.00
2022-08-03T02:27:43.816Z,100.00
2022-08-03T02:30:12.734Z,100.00
2022-08-03T02:32:42.672Z,100.00
2022-08-03T02:35:15.487Z,100.00
2022-08-03T02:37:49.778Z,100.00
2022-08-03T02:40:19.314Z,100.00
2022-08-03T02:42:47.328Z,100.00
2022-08-03T02:45:17.110Z,100.00
2022-08-03T02:47:53.422Z,100.00
2022-08-03T02:50:24.722Z,100.00
2022-08-03T02:52:53.410Z,100.00
2022-08-03T02:55:23.027Z,100.00
2022-08-03T02:57:51.568Z,100.00
2022-08-03T03:00:19.648Z,100.00
2022-08-03T03:02:58.118Z,100.00
2022-08-03T03:05:54.865Z,100.00
2022-08-03T03:08:18.866Z,100.00
2022-08-03T03:10:53.256Z,100.00
2022-08-03T03:13:22.770Z,100.00
2022-08-03T03:15:50.975Z,100.00
2022-08-03T03:18:22.225Z,100.00
2022-08-03T03:20:51.783Z,100.00
2022-08-03T03:23:20.401Z,100.00
2022-08-03T03:25:47.641Z,100.00
2022-08-03T03:28:15.122Z,100.00
2022-08-03T03:30:42.426Z,100.00
2022-08-03T03:33:09.148Z,100.00
2022-08-03T03:35:38.830Z,100.00
2022-08-03T03:38:07.214Z,100.00
2022-08-03T03:40:36.495Z,100.00
2022-08-03T03:43:04.016Z,100.00
2022-08-03T03:45:31.531Z,100.00
2022-08-03T03:48:00.676Z,100.00
2022-08-03T03:50:28.421Z,100.00
2022-08-03T03:52:55.140Z,100.00
2022-08-03T03:55:21.939Z,100.00
2022-08-03T03:57:48.700Z,100.00
2022-08-03T04:00:18.036Z,100.00
2022-08-03T04:02:47.856Z,100.00
2022-08-03T04:05:34.139Z,100.00
2022-08-03T04:08:25.090Z,100.00
2022-08-03T04:11:16.081Z,100.00
2022-08-03T04:13:57.284Z,100.00
2022-08-03T04:16:33.798Z,100.00
2022-08-03T04:19:08.360Z,100.00
2022-08-03T04:21:38.278Z,100.00
2022-08-03T04:24:08.662Z,100.00
2022-08-03T04:26:39.673Z,100.00
2022-08-03T04:29:08.062Z,100.00
2022-08-03T04:31:35.673Z,100.00
2022-08-03T04:34:03.382Z,100.00
2022-08-03T04:36:33.964Z,100.00
2022-08-03T04:39:18.472Z,100.00
2022-08-03T04:42:07.156Z,100.00
2022-08-03T04:44:39.156Z,100.00
2022-08-03T04:47:05.992Z,100.00
2022-08-03T04:49:33.406Z,100.00
2022-08-03T04:52:00.366Z,100.00
2022-08-03T04:54:27.140Z,100.00
2022-08-03T04:56:53.866Z,100.00
2022-08-03T04:59:20.673Z,100.00
2022-08-03T05:01:47.615Z,100.00
2022-08-03T05:04:14.798Z,100.00
2022-08-03T05:06:48.132Z,100.00
2022-08-03T05:09:50.055Z,100.00
2022-08-03T05:12:08.476Z,100.00
2022-08-03T05:14:37.896Z,100.00
2022-08-03T05:17:05.973Z,100.00
2022-08-03T05:19:33.329Z,100.00
2022-08-03T05:22:00.189Z,100.00
2022-08-03T05:24:27.483Z,100.00
2022-08-03T05:26:54.282Z,100.00
2022-08-03T05:29:21.319Z,100.00
2022-08-03T05:31:48.066Z,100.00
2022-08-03T05:34:15.087Z,100.00
2022-08-03T05:36:41.869Z,100.00
2022-08-03T05:39:08.580Z,100.00
2022-08-03T05:41:37.063Z,100.00
2022-08-03T05:44:04.939Z,100.00
2022-08-03T05:46:32.264Z,91.45
2022-08-03T05:48:59.185Z,94.50
2022-08-03T05:51:26.015Z,82.04
2022-08-03T05:53:52.801Z,74.17
2022-08-03T05:56:23.658Z,69.72
2022-08-03T05:58:51.925Z,69.51
2022-08-03T06:01:21.953Z,64.70
2022-08-03T06:03:50.270Z,64.96
2022-08-03T06:06:17.115Z,64.67
2022-08-03T06:08:45.056Z,65.11
2022-08-03T06:11:12.452Z,63.64
2022-08-03T06:13:39.519Z,64.13
2022-08-03T06:16:06.458Z,63.89
2022-08-03T06:18:33.373Z,62.52
2022-08-03T06:21:15.003Z,64.58
2022-08-03T06:23:54.553Z,63.31
2022-08-03T06:26:23.552Z,60.62
2022-08-03T06:28:52.831Z,60.88
2022-08-03T06:31:24.000Z,61.35
2022-08-03T06:34:33.597Z,59.64
2022-08-03T06:36:38.112Z,59.68
2022-08-03T06:39:05.555Z,59.91
2022-08-03T06:41:38.199Z,58.83
2022-08-03T06:44:11.495Z,58.17
2022-08-03T06:46:38.238Z,55.64
2022-08-03T06:49:05.087Z,56.24
2022-08-03T06:52:05.765Z,55.39
2022-08-03T06:54:18.994Z,55.54
2022-08-03T06:56:45.771Z,54.64
2022-08-03T07:00:09.680Z,53.78
2022-08-03T07:01:59.357Z,52.79
2022-08-03T07:04:26.196Z,52.29
2022-08-03T07:06:52.905Z,51.98
2022-08-03T07:09:19.668Z,52.46
2022-08-03T07:11:46.437Z,53.24
2022-08-03T07:14:13.182Z,51.70
2022-08-03T07:16:39.947Z,50.70
2022-08-03T07:19:06.696Z,50.35
2022-08-03T07:21:33.437Z,51.53
2022-08-03T07:24:00.228Z,51.20
2022-08-03T07:26:26.997Z,50.83
2022-08-03T07:28:53.771Z,51.77
2022-08-03T07:31:20.872Z,51.86
2022-08-03T07:33:47.649Z,50.04
2022-08-03T07:36:14.564Z,50.19
2022-08-03T07:38:41.390Z,48.94
2022-08-03T07:41:08.097Z,49.00
2022-08-03T07:43:34.814Z,49.40
2022-08-03T07:46:01.574Z,48.13
2022-08-03T07:48:28.302Z,47.70
2022-08-03T07:50:55.009Z,47.78
2022-08-03T07:53:25.813Z,47.79
2022-08-03T07:55:52.557Z,47.64
2022-08-03T07:58:23.958Z,46.61
2022-08-03T08:00:53.684Z,46.61
2022-08-03T08:03:22.039Z,47.27
2022-08-03T08:05:49.801Z,46.62
2022-08-03T08:08:16.677Z,46.29
2022-08-03T08:10:58.417Z,45.43
2022-08-03T08:13:25.738Z,45.78
2022-08-03T08:15:52.499Z,45.78
2022-08-03T08:18:19.302Z,47.11
2022-08-03T08:20:46.326Z,45.70
2022-08-03T08:23:41.613Z,46.11
2022-08-03T08:25:59.718Z,47.09
2022-08-03T08:28:32.796Z,47.03
2022-08-03T08:31:00.872Z,46.97
2022-08-03T08:33:42.214Z,46.55
2022-08-03T08:36:15.536Z,46.82
2022-08-03T08:38:44.680Z,45.37
2022-08-03T08:41:12.898Z,45.01
2022-08-03T08:43:40.214Z,44.97
2022-08-03T08:46:08.548Z,44.70
2022-08-03T08:48:40.553Z,44.57
2022-08-03T08:51:08.911Z,44.82
2022-08-03T08:53:38.482Z,42.97
2022-08-03T08:56:07.857Z,43.55
2022-08-03T08:58:38.797Z,42.80
2022-08-03T09:01:05.892Z,43.44
2022-08-03T09:03:35.988Z,43.78
2022-08-03T09:06:03.292Z,43.57
2022-08-03T09:08:31.919Z,43.30
2022-08-03T09:10:58.865Z,43.72
2022-08-03T09:13:25.831Z,44.53
2022-08-03T09:16:12.195Z,44.51
2022-08-03T09:18:39.955Z,44.43
2022-08-03T09:21:32.099Z,42.84
2022-08-03T09:24:03.871Z,43.63
2022-08-03T09:26:35.519Z,42.93
2022-08-03T09:29:14.917Z,44.10
2022-08-03T09:31:47.090Z,43.14
2022-08-03T09:34:16.517Z,42.57
2022-08-03T09:36:46.524Z,41.80
2022-08-03T09:39:16.578Z,42.92
2022-08-03T09:41:46.346Z,42.34
2022-08-03T09:44:24.453Z,43.07
2022-08-03T09:46:56.341Z,42.39
2022-08-03T09:49:24.545Z,43.91
2022-08-03T09:52:32.305Z,42.39
2022-08-03T09:54:39.771Z,42.85
2022-08-03T09:57:06.823Z,41.88
2022-08-03T09:59:34.846Z,42.49
2022-08-03T10:02:02.074Z,41.30
2022-08-03T10:04:29.473Z,42.24
2022-08-03T10:07:09.448Z,41.56
2022-08-03T10:09:38.352Z,42.64
2022-08-03T10:12:09.795Z,42.89
2022-08-03T10:14:42.062Z,43.09
2022-08-03T10:17:09.906Z,43.96
2022-08-03T10:19:36.814Z,43.26
2022-08-03T10:22:15.510Z,41.79
2022-08-03T10:25:04.201Z,42.34
2022-08-03T10:27:34.941Z,42.18
2022-08-03T10:30:05.064Z,42.98
2022-08-03T10:32:35.481Z,43.31
2022-08-03T10:35:20.075Z,41.61
2022-08-03T10:38:01.822Z,42.77
2022-08-03T10:40:49.607Z,41.33
2022-08-03T10:43:26.095Z,40.18
2022-08-03T10:45:53.253Z,40.43
2022-08-03T10:48:20.895Z,40.40
2022-08-03T10:50:50.812Z,41.47
2022-08-03T10:53:34.836Z,41.11
2022-08-03T10:56:21.629Z,40.11
2022-08-03T10:59:08.958Z,39.24
2022-08-03T11:02:00.420Z,39.47
2022-08-03T11:04:29.924Z,40.59
2022-08-03T11:07:26.559Z,40.29
2022-08-03T11:09:55.867Z,40.10
2022-08-03T11:12:31.058Z,40.51
2022-08-03T11:15:05.071Z,40.25
2022-08-03T11:17:46.573Z,39.82
2022-08-03T11:20:46.155Z,40.68
2022-08-03T11:23:14.046Z,39.96
2022-08-03T11:26:09.093Z,39.68
2022-08-03T11:28:36.026Z,39.85
2022-08-03T11:31:51.487Z,39.43
2022-08-03T11:34:18.764Z,40.99
2022-08-03T11:37:21.678Z,41.11
2022-08-03T11:39:50.713Z,40.44
2022-08-03T11:42:23.581Z,39.96
2022-08-03T11:44:51.967Z,41.30
2022-08-03T11:47:21.101Z,40.74
2022-08-03T11:49:49.451Z,39.44
2022-08-03T11:52:19.668Z,39.75
2022-08-03T11:54:56.775Z,39.69
2022-08-03T11:59:10.818Z,38.44
2022-08-03T12:00:28.797Z,38.57
2022-08-03T12:02:59.500Z,40.61
2022-08-03T12:05:35.347Z,39.54
2022-08-03T12:08:03.377Z,38.39
2022-08-03T12:10:32.322Z,38.82
2022-08-03T12:13:00.912Z,38.74
2022-08-03T12:15:29.556Z,40.33
2022-08-03T12:17:57.918Z,39.79
2022-08-03T12:20:34.430Z,38.55
2022-08-03T12:23:06.796Z,37.13
2022-08-03T12:25:38.774Z,37.76
2022-08-03T12:28:37.266Z,37.89
2022-08-03T12:31:07.585Z,37.00
2022-08-03T12:34:00.435Z,36.85
2022-08-03T12:36:28.192Z,36.57
2022-08-03T12:39:09.307Z,35.37
2022-08-03T12:41:38.444Z,35.06
2022-08-03T12:44:06.807Z,35.49
2022-08-03T12:46:42.742Z,33.47
2022-08-03T12:49:20.125Z,32.75
2022-08-03T12:51:46.968Z,33.59
2022-08-03T12:54:24.704Z,34.40
2022-08-03T12:57:01.962Z,34.09
2022-08-03T12:59:40.721Z,33.87
2022-08-03T13:02:18.881Z,35.21
2022-08-03T13:04:47.772Z,35.47
2022-08-03T13:07:15.845Z,34.51
2022-08-03T13:09:47.575Z,34.10
2022-08-03T13:12:22.369Z,33.90
2022-08-03T13:14:52.187Z,33.77
2022-08-03T13:17:20.256Z,34.08
2022-08-03T13:19:48.129Z,34.78
2022-08-03T13:22:25.989Z,33.84
2022-08-03T13:24:57.808Z,34.86
2022-08-03T13:28:03.759Z,35.25
2022-08-03T13:30:12.506Z,34.51
2022-08-03T13:32:39.505Z,34.52
2022-08-03T13:35:07.652Z,34.05
2022-08-03T13:37:34.518Z,35.12
2022-08-03T13:40:03.758Z,35.85
2022-08-03T13:42:34.348Z,37.41
2022-08-03T13:45:02.503Z,37.56
2022-08-03T13:47:29.430Z,37.78
2022-08-03T13:50:01.066Z,35.89
2022-08-03T13:52:31.012Z,34.22
2022-08-03T13:54:58.616Z,33.87
2022-08-03T13:58:02.299Z,35.00
2022-08-03T14:00:12.645Z,35.31
2022-08-03T14:02:39.424Z,34.42
2022-08-03T14:05:06.487Z,35.37
2022-08-03T14:07:33.381Z,35.73
2022-08-03T14:10:01.843Z,36.25
2022-08-03T14:12:28.673Z,37.81
2022-08-03T14:14:58.299Z,37.68
2022-08-03T14:17:27.996Z,38.64
2022-08-03T14:20:38.798Z,39.14
2022-08-03T14:22:56.758Z,38.70
2022-08-03T14:25:23.646Z,38.86
2022-08-03T14:27:50.477Z,38.62
2022-08-03T14:30:17.498Z,38.45
2022-08-03T14:32:44.296Z,38.75
2022-08-03T14:35:11.075Z,39.59
2022-08-03T14:37:37.845Z,39.64
2022-08-03T14:40:05.626Z,39.64
2022-08-03T14:42:32.876Z,40.02
2022-08-03T14:45:03.600Z,39.02
2022-08-03T14:47:34.168Z,39.67
2022-08-03T14:50:38.415Z,39.47
2022-08-03T14:53:07.714Z,40.06
2022-08-03T14:55:38.947Z,39.71
2022-08-03T14:58:19.721Z,39.47
2022-08-03T15:00:47.678Z,39.52
2022-08-03T15:03:16.639Z,39.87
2022-08-03T15:05:44.814Z,39.86
2022-08-03T15:08:11.763Z,39.30
2022-08-03T15:10:44.487Z,39.66
2022-08-03T15:13:13.213Z,39.02
2022-08-03T15:15:40.901Z,39.28
2022-08-03T15:18:08.023Z,39.50
2022-08-03T15:20:50.420Z,39.62
2022-08-03T15:23:17.606Z,39.97
2022-08-03T15:26:03.908Z,40.58
2022-08-03T15:28:32.719Z,40.26
2022-08-03T15:31:00.258Z,40.10
2022-08-03T15:33:27.223Z,40.16
2022-08-03T15:35:54.351Z,40.32
2022-08-03T15:38:26.021Z,39.77
2022-08-03T15:40:54.805Z,39.72
2022-08-03T15:43:25.210Z,39.83
2022-08-03T15:46:12.816Z,39.65
2022-08-03T15:48:39.787Z,39.84
2022-08-03T15:51:06.990Z,40.03
2022-08-03T15:53:34.139Z,39.83
2022-08-03T15:56:05.167Z,40.15
2022-08-03T15:59:04.270Z,40.13
2022-08-03T16:01:21.624Z,39.76
2022-08-03T16:03:48.468Z,39.97
2022-08-03T16:06:15.252Z,39.50
2022-08-03T16:08:42.065Z,39.74
2022-08-03T16:11:08.895Z,39.45
2022-08-03T16:14:05.516Z,39.23
2022-08-03T16:16:22.502Z,39.21
2022-08-03T16:18:49.228Z,39.53
2022-08-03T16:21:16.984Z,39.39
2022-08-03T16:23:47.313Z,39.46
2022-08-03T16:26:14.622Z,39.38
2022-08-03T16:28:41.668Z,39.55
2022-08-03T16:31:09.256Z,39.66
2022-08-03T16:33:36.347Z,39.87
2022-08-03T16:36:03.695Z,39.57
2022-08-03T16:38:30.725Z,39.69
2022-08-03T16:40:57.664Z,39.77
2022-08-03T16:43:24.879Z,40.02
2022-08-03T16:45:52.314Z,39.66
2022-08-03T16:48:19.382Z,39.60
2022-08-03T16:50:46.323Z,39.83
2022-08-03T16:53:16.619Z,43.03
2022-08-03T16:55:53.411Z,44.15
2022-08-03T16:58:41.540Z,44.79
2022-08-03T17:01:22.204Z,46.54
2022-08-03T17:04:02.377Z,48.29
2022-08-03T17:06:36.164Z,49.49
2022-08-03T17:12:02.781Z,51.19
2022-08-03T17:14:29.893Z,52.32
2022-08-03T17:17:03.831Z,54.52
2022-08-03T17:19:32.548Z,56.05
2022-08-03T17:22:09.075Z,58.13
2022-08-03T17:24:40.953Z,60.23
2022-08-03T17:28:41.502Z,61.30
2022-08-03T17:30:02.578Z,64.57
2022-08-03T17:32:32.474Z,67.93
2022-08-03T17:35:01.156Z,72.30
2022-08-03T17:37:57.880Z,77.06
2022-08-03T17:44:12.735Z,85.25
2022-08-03T17:45:52.866Z,91.33
2022-08-03T17:48:21.515Z,91.30
2022-08-03T17:50:58.853Z,91.01
2022-08-03T17:53:31.770Z,93.53
2022-08-03T17:56:42.555Z,95.86
2022-08-03T18:02:31.061Z,100.00
2022-08-03T18:05:16.708Z,100.00
2022-08-03T18:08:00.800Z,100.00
2022-08-03T18:10:35.272Z,100.00
2022-08-03T18:13:30.205Z,100.00
2022-08-03T18:16:02.363Z,100.00
2022-08-03T18:18:36.687Z,100.00
2022-08-03T18:21:09.395Z,100.00
2022-08-03T18:23:50.946Z,100.00
2022-08-03T18:26:18.911Z,100.00
2022-08-03T18:28:48.614Z,100.00
2022-08-03T18:31:33.106Z,100.00
2022-08-03T18:34:17.078Z,100.00
2022-08-03T18:36:52.863Z,100.00
2022-08-03T18:39:22.977Z,100.00
2022-08-03T18:41:49.781Z,100.00
2022-08-03T18:44:52.511Z,100.00
2022-08-03T18:47:16.112Z,100.00
2022-08-03T18:50:12.555Z,100.00
2022-08-03T18:53:19.487Z,100.00
2022-08-03T18:56:02.279Z,100.00
2022-08-03T18:58:51.458Z,100.00
2022-08-03T19:02:04.133Z,100.00
2022-08-03T19:04:48.269Z,100.00
2022-08-03T19:07:23.324Z,100.00
2022-08-03T19:09:59.166Z,100.00
2022-08-03T19:12:41.927Z,100.00
2022-08-03T19:15:15.742Z,100.00
2022-08-03T19:17:53.690Z,100.00
2022-08-03T19:20:26.434Z,100.00
2022-08-03T19:22:57.303Z,100.00
2022-08-03T19:25:34.551Z,100.00
2022-08-03T19:28:04.199Z,100.00
2022-08-03T19:30:38.571Z,100.00
2022-08-03T19:33:14.666Z,100.00
2022-08-03T19:35:54.904Z,100.00
2022-08-03T19:38:28.516Z,100.00
2022-08-03T19:41:02.549Z,100.00
2022-08-03T19:43:53.040Z,100.00
2022-08-03T19:46:21.840Z,100.00
2022-08-03T19:49:15.649Z,100.00
2022-08-03T19:51:58.606Z,100.00
2022-08-03T19:54:39.644Z,100.00
2022-08-03T19:57:24.589Z,100.00
2022-08-03T19:59:53.670Z,100.00
2022-08-03T20:02:26.637Z,100.00
2022-08-03T20:04:59.684Z,100.00
2022-08-03T20:07:28.861Z,100.00
2022-08-03T20:09:59.730Z,100.00
2022-08-03T20:12:29.564Z,100.00
2022-08-03T20:14:57.990Z,100.00
2022-08-03T20:17:55.299Z,100.00
2022-08-03T20:20:12.412Z,100.00
2022-08-03T20:22:45.494Z,100.00
2022-08-03T20:25:16.407Z,100.00
2022-08-03T20:28:08.211Z,100.00
2022-08-03T20:30:39.103Z,100.00
2022-08-03T20:33:09.462Z,100.00
2022-08-03T20:35:36.226Z,100.00
2022-08-03T20:38:03.526Z,100.00
2022-08-03T20:40:30.321Z,100.00
2022-08-03T20:42:57.038Z,100.00
2022-08-03T20:45:59.965Z,100.00
2022-08-03T20:48:10.707Z,100.00
2022-08-03T20:50:41.450Z,100.00
2022-08-03T20:53:41.294Z,100.00
2022-08-03T20:56:05.338Z,100.00
2022-08-03T20:58:36.113Z,100.00
2022-08-03T21:01:03.306Z,100.00
2022-08-03T21:03:40.531Z,100.00
2022-08-03T21:06:10.267Z,100.00
2022-08-03T21:08:46.864Z,100.00
2022-08-03T21:11:18.389Z,100.00
2022-08-03T21:12:59.179Z,81.40
2022-08-03T21:13:05.166Z,100.00
2022-08-03T21:14:09.065Z,100.00
2022-08-03T21:16:39.071Z,100.00
2022-08-03T21:19:06.509Z,100.00
2022-08-03T21:21:37.302Z,100.00
2022-08-03T21:24:05.836Z,100.00
2022-08-03T21:26:37.402Z,100.00
2022-08-03T21:29:04.280Z,100.00
2022-08-03T21:31:31.156Z,100.00
2022-08-03T21:34:01.140Z,100.00
2022-08-03T21:36:30.248Z,100.00
2022-08-03T21:38:58.022Z,100.00
2022-08-03T21:41:30.191Z,100.00
2022-08-03T21:43:57.427Z,100.00
2022-08-03T21:46:26.147Z,100.00
2022-08-03T21:50:05.267Z,100.00
2022-08-03T21:51:50.236Z,100.00
2022-08-03T21:54:20.158Z,100.00
2022-08-03T21:56:48.213Z,100.00
2022-08-03T21:59:19.840Z,100.00
2022-08-03T22:01:55.409Z,100.00
2022-08-03T22:04:50.867Z,100.00
2022-08-03T22:07:13.759Z,100.00
2022-08-03T22:09:40.954Z,100.00
2022-08-03T22:12:23.830Z,100.00
2022-08-03T22:15:00.597Z,100.00
2022-08-03T22:17:55.937Z,100.00
2022-08-03T22:20:21.581Z,100.00
2022-08-03T22:22:55.498Z,100.00
2022-08-03T22:25:31.600Z,100.00
2022-08-03T22:28:01.588Z,100.00
2022-08-03T22:30:28.941Z,100.00
2022-08-03T22:32:56.462Z,100.00
2022-08-03T22:35:25.872Z,100.00
2022-08-03T22:37:58.567Z,100.00
2022-08-03T22:40:26.545Z,100.00
2022-08-03T22:42:54.509Z,100.00
2022-08-03T22:46:07.275Z,100.00
2022-08-03T22:48:08.956Z,100.00
2022-08-03T22:50:36.050Z,100.00
2022-08-03T22:53:03.652Z,100.00
2022-08-03T22:55:31.192Z,100.00
2022-08-03T22:57:58.091Z,100.00
2022-08-03T23:00:25.052Z,100.00
2022-08-03T23:02:54.093Z,100.00
2022-08-03T23:06:00.575Z,100.00
2022-08-03T23:08:15.395Z,100.00
2022-08-03T23:10:46.991Z,100.00
2022-08-03T23:13:19.688Z,100.00
2022-08-03T23:15:57.202Z,100.00
2022-08-03T23:18:25.479Z,100.00
2022-08-03T23:20:53.639Z,100.00
2022-08-03T23:23:23.499Z,100.00
2022-08-03T23:25:51.683Z,100.00
2022-08-03T23:28:19.322Z,100.00
2022-08-03T23:30:47.470Z,100.00
2022-08-03T23:33:16.496Z,100.00
2022-08-03T23:36:29.295Z,100.00
2022-08-03T23:38:47.625Z,100.00
2022-08-03T23:41:17.732Z,100.00
2022-08-03T23:43:53.900Z,100.00
2022-08-03T23:46:22.771Z,100.00
2022-08-03T23:48:51.081Z,100.00
2022-08-03T23:51:42.371Z,100.00
2022-08-03T23:54:40.762Z,100.00
2022-08-03T23:57:25.767Z,100.00
